Tampa, FL

06:18 AM EDT am 23. September 2014 (GMT -0400)
MacDill Air Force Base | Change Station
CLOSE
Current Station
Flughafen
Location: Tampa Macdill AFB,
Höhe: 13 ft
Wetterstationen in der Umgebung
aktive Warnung: Flood Warning

Höhe 13 ft 27.85 °N, 82.52 °W | Updated 20 minutes ago

Teils Wolkig
Teils Wolkig
73 °F
gefühlte 73 °F
N
2
Wind Wechselnd Wind aus Südost

Heute
Max. -- | schwach -- °F
--% Regenrisiko
Gestern
Max. -- | schwach -- °F
Precip. -- inch
7:19 AM 7:25 PM
Letztes Viertel, 1% visible
Druck 29.98 inch
Sichtweite 10.0 Meilen
Wolken Few 14000 ft
Taupunkt 73 °F
Feuchtigkeit 100%
Regen 0.00 inch
Schneehöhe Nicht verfügbar..
UV 0 von 12
Pollen 2.10 von 12
Luftqualität Nicht verfügbar..
Flu Activity Nicht verfügbar..
METAR KMCF 230958Z AUTO 14002KT 10SM FEW140 23/23 A2997 RMK AO2 SLP152 T02260226

More Conditions Fewer Conditions

Druck 29.98 inch
Sichtweite 10.0 Meilen
Wolken Few 14000 ft
Taupunkt 73 °F
Feuchtigkeit 100%
Regen 0.00 inch
Schneehöhe Nicht verfügbar..
UV 0 von 12
Pollen 2.10 von 12
Luftqualität Nicht verfügbar..
Flu Activity Nicht verfügbar..
METAR KMCF 230958Z AUTO 14002KT 10SM FEW140 23/23 A2997 RMK AO2 SLP152 T02260226

More Conditions Fewer Conditions

10-Day Weather Forecast

Almanac

Astronomie

Sep. 23, 2014 Aufgang Untergang
Genaue Zeit 07:19 EDT 19:25 EDT
Bürgerliche Dämmerung 06:55 EDT 19:48 EDT
Nautische Dämmerung 06:28 EDT 20:15 EDT
Astronomische Dämmerung 06:00 EDT 20:43 EDT
Mond 06:43 EDT 19:04 EDT
Länge des sichtbaren Lichts 12h 53m
Tageslänge
12h 06m
Tomorrow will be 1m 38s shorter.
Letztes Viertel, 1% of the Moon is Illuminated
Heute
Letztes Viertel
Sept 24
Neu
Okt 1
Erstes Viertel
Okt 8
Vollmond
Okt 15
Letztes Viertel

Heutige Rekorde

State Highs State Lows

Community

WunderPhotos

Upload Photos

1,755,645 Fotos hochgeladen!

Nearby

Schneehöhe

Station Depth Höhe
Kein Neuschnee gemeldet.

Erdbebenaktivität

Stadt Distance Mag. Time & Date
No recent earthquake activity has been reported nearby.
Minimum magnitude displayed is 2.5.

küstennahe Wassertemperaturen

Ort Temperatur
St Petersburg, FL 84.9 °F
Old Port Tampa, FL 82.0 °F

Wetterstationen in der Umgebung